Time,TemperatureF,DewpointF,PressureIn,WindDirection,WindDirectionDegrees,WindSpeedMPH,WindSpeedGustMPH,Humidity,HourlyPrecipIn,Conditions,Clouds,dailyrainin,SoftwareType,DateUTC
2013-05-04 00:12:00,47.0,46.0,-100.00,NNW,328,3.0,12.0,97,0.00,,,0.71,,2013-05-04 05:12:00,
2013-05-04 00:22:00,47.0,46.0,-100.00,NNW,328,3.0,12.0,97,0.00,,,0.71,,2013-05-04 05:22:00,
2013-05-04 00:32:00,47.0,46.0,-100.00,NNW,328,3.0,12.0,97,0.00,,,0.71,,2013-05-04 05:32:00,
2013-05-04 00:42:00,47.0,46.0,-100.00,NNW,328,3.0,12.0,97,0.00,,,0.71,,2013-05-04 05:42:00,
2013-05-04 01:11:00,47.0,46.0,-100.00,West,272,3.0,8.0,96,0.00,,,0.65,,2013-05-04 06:11:00,
2013-05-04 01:21:00,47.0,46.0,-100.00,West,272,3.0,8.0,96,0.00,,,0.65,,2013-05-04 06:21:00,
2013-05-04 01:32:00,47.0,46.0,-100.00,West,272,3.0,8.0,96,0.00,,,0.65,,2013-05-04 06:32:00,
2013-05-04 01:42:00,47.0,46.0,-100.00,West,272,3.0,8.0,96,0.00,,,0.65,,2013-05-04 06:42:00,
2013-05-04 02:11:00,46.0,44.0,-100.00,NW,317,2.0,10.0,94,0.00,,,0.52,,2013-05-04 07:11:00,
2013-05-04 02:21:00,46.0,44.0,-100.00,NW,317,2.0,10.0,94,0.00,,,0.52,,2013-05-04 07:21:00,
2013-05-04 02:32:00,46.0,44.0,-100.00,NW,317,2.0,10.0,94,0.00,,,0.52,,2013-05-04 07:32:00,
2013-05-04 02:42:00,46.0,44.0,-100.00,NW,317,2.0,10.0,94,0.00,,,0.52,,2013-05-04 07:42:00,
2013-05-04 03:11:00,45.0,43.0,-100.00,WNW,292,2.0,6.0,94,0.00,,,0.42,,2013-05-04 08:11:00,
2013-05-04 03:21:00,45.0,43.0,-100.00,WNW,292,2.0,6.0,94,0.00,,,0.42,,2013-05-04 08:21:00,
2013-05-04 03:31:00,45.0,43.0,-100.00,WNW,292,2.0,6.0,94,0.00,,,0.42,,2013-05-04 08:31:00,
2013-05-04 03:42:00,45.0,43.0,-100.00,WNW,292,2.0,6.0,94,0.00,,,0.42,,2013-05-04 08:42:00,
2013-05-04 04:11:00,44.0,43.0,-100.00,WNW,303,2.0,9.0,95,0.00,,,0.42,,2013-05-04 09:11:00,
2013-05-04 04:21:00,44.0,43.0,-100.00,WNW,303,2.0,9.0,95,0.00,,,0.42,,2013-05-04 09:21:00,
2013-05-04 04:32:00,44.0,43.0,-100.00,WNW,303,2.0,9.0,95,0.00,,,0.42,,2013-05-04 09:32:00,
2013-05-04 04:42:00,44.0,43.0,-100.00,WNW,303,2.0,9.0,95,0.00,,,0.42,,2013-05-04 09:42:00,
2013-05-04 05:12:00,43.0,42.0,-100.00,WNW,290,1.0,4.0,96,0.00,,,0.42,,2013-05-04 10:12:00,
2013-05-04 05:23:00,43.0,42.0,-100.00,WNW,290,1.0,4.0,96,0.00,,,0.42,,2013-05-04 10:23:00,
2013-05-04 05:33:00,43.0,42.0,-100.00,WNW,290,1.0,4.0,96,0.00,,,0.42,,2013-05-04 10:33:00,
2013-05-04 05:42:00,43.0,42.0,-100.00,WNW,290,1.0,4.0,96,0.00,,,0.42,,2013-05-04 10:42:00,
2013-05-04 06:11:00,41.0,40.0,-100.00,NW,319,2.0,4.0,97,0.00,,,0.42,,2013-05-04 11:11:00,
2013-05-04 06:21:00,41.0,40.0,-100.00,NW,319,2.0,4.0,97,0.00,,,0.42,,2013-05-04 11:21:00,
2013-05-04 06:32:00,41.0,40.0,-100.00,NW,319,2.0,4.0,97,0.00,,,0.42,,2013-05-04 11:32:00,
2013-05-04 06:43:00,41.0,40.0,-100.00,NW,319,2.0,4.0,97,0.00,,,0.42,,2013-05-04 11:43:00,
2013-05-04 07:14:00,41.0,40.0,-100.00,NW,320,2.0,4.0,98,0.00,,,0.42,,2013-05-04 12:14:00,
2013-05-04 07:36:00,41.0,40.0,-100.00,NW,320,2.0,4.0,98,0.00,,,0.42,,2013-05-04 12:36:00,
2013-05-04 07:42:00,41.0,40.0,-100.00,NW,320,2.0,4.0,98,0.00,,,0.42,,2013-05-04 12:42:00,
2013-05-04 08:11:00,46.0,45.0,-100.00,WNW,303,3.0,6.0,98,0.00,,,0.42,,2013-05-04 13:11:00,
2013-05-04 08:21:00,46.0,45.0,-100.00,WNW,303,3.0,6.0,98,0.00,,,0.42,,2013-05-04 13:21:00,
2013-05-04 08:42:00,46.0,45.0,-100.00,WNW,303,3.0,6.0,98,0.00,,,0.42,,2013-05-04 13:42:00,
2013-05-04 09:11:00,55.0,47.0,-100.00,WNW,302,3.0,7.0,73,0.00,,,0.41,,2013-05-04 14:11:00,
2013-05-04 09:21:00,55.0,47.0,-100.00,WNW,302,3.0,7.0,73,0.00,,,0.41,,2013-05-04 14:21:00,
2013-05-04 09:32:00,55.0,47.0,-100.00,WNW,302,3.0,7.0,73,0.00,,,0.41,,2013-05-04 14:32:00,
2013-05-04 09:42:00,55.0,47.0,-100.00,WNW,302,3.0,7.0,73,0.00,,,0.41,,2013-05-04 14:42:00,
2013-05-04 10:12:00,59.0,45.0,-100.00,West,279,4.0,9.0,59,0.00,,,0.41,,2013-05-04 15:12:00,
2013-05-04 10:22:00,59.0,45.0,-100.00,West,279,4.0,9.0,59,0.00,,,0.41,,2013-05-04 15:22:00,
2013-05-04 10:33:00,59.0,45.0,-100.00,West,279,4.0,9.0,59,0.00,,,0.41,,2013-05-04 15:33:00,
2013-05-04 10:43:00,59.0,45.0,-100.00,West,279,4.0,9.0,59,0.00,,,0.41,,2013-05-04 15:43:00,
2013-05-04 11:12:00,64.0,42.0,-100.00,NW,308,5.0,15.0,45,0.00,,,0.41,,2013-05-04 16:12:00,
2013-05-04 11:22:00,64.0,42.0,-100.00,NW,308,5.0,15.0,45,0.00,,,0.41,,2013-05-04 16:22:00,
2013-05-04 11:33:00,64.0,42.0,-100.00,NW,308,5.0,15.0,45,0.00,,,0.41,,2013-05-04 16:33:00,
2013-05-04 11:42:00,64.0,42.0,-100.00,NW,308,5.0,15.0,45,0.00,,,0.41,,2013-05-04 16:42:00,
2013-05-04 12:12:00,67.0,38.0,-100.00,NNW,333,5.0,14.0,35,0.00,,,0.41,,2013-05-04 17:12:00,
2013-05-04 12:22:00,67.0,38.0,-100.00,NNW,333,5.0,14.0,35,0.00,,,0.41,,2013-05-04 17:22:00,
2013-05-04 12:32:00,67.0,38.0,-100.00,NNW,333,5.0,14.0,35,0.00,,,0.41,,2013-05-04 17:32:00,
2013-05-04 12:42:00,67.0,38.0,-100.00,NNW,333,5.0,14.0,35,0.00,,,0.41,,2013-05-04 17:42:00,
2013-05-04 13:12:00,69.0,39.0,-100.00,ESE,106,4.0,17.0,33,0.00,,,0.41,,2013-05-04 18:12:00,
2013-05-04 13:21:00,69.0,39.0,-100.00,ESE,106,4.0,17.0,33,0.00,,,0.41,,2013-05-04 18:21:00,
2013-05-04 13:32:00,69.0,39.0,-100.00,ESE,106,4.0,17.0,33,0.00,,,0.41,,2013-05-04 18:32:00,
2013-05-04 13:42:00,69.0,39.0,-100.00,ESE,106,4.0,17.0,33,0.00,,,0.41,,2013-05-04 18:42:00,
2013-05-04 14:11:00,71.0,35.0,-100.00,WNW,302,4.0,12.0,27,0.00,,,0.41,,2013-05-04 19:11:00,
2013-05-04 14:21:00,71.0,35.0,-100.00,WNW,302,4.0,12.0,27,0.00,,,0.41,,2013-05-04 19:21:00,
2013-05-04 14:32:00,71.0,35.0,-100.00,WNW,302,4.0,12.0,27,0.00,,,0.41,,2013-05-04 19:32:00,
2013-05-04 14:42:00,71.0,35.0,-100.00,WNW,302,4.0,12.0,27,0.00,,,0.41,,2013-05-04 19:42:00,
2013-05-04 15:11:00,72.0,35.0,-100.00,NW,324,4.0,14.0,26,0.00,,,0.41,,2013-05-04 20:11:00,
2013-05-04 15:22:00,72.0,35.0,-100.00,NW,324,4.0,14.0,26,0.00,,,0.41,,2013-05-04 20:22:00,
2013-05-04 15:32:00,72.0,35.0,-100.00,NW,324,4.0,14.0,26,0.00,,,0.41,,2013-05-04 20:32:00,
2013-05-04 15:42:00,72.0,35.0,-100.00,NW,324,4.0,14.0,26,0.00,,,0.41,,2013-05-04 20:42:00,
2013-05-04 16:12:00,74.0,38.0,-100.00,South,182,4.0,13.0,27,0.00,,,0.32,,2013-05-04 21:12:00,
2013-05-04 16:22:00,74.0,38.0,-100.00,South,182,4.0,13.0,27,0.00,,,0.32,,2013-05-04 21:22:00,
2013-05-04 16:33:00,74.0,38.0,-100.00,South,182,4.0,13.0,27,0.00,,,0.32,,2013-05-04 21:33:00,
2013-05-04 16:43:00,74.0,38.0,-100.00,South,182,4.0,13.0,27,0.00,,,0.32,,2013-05-04 21:43:00,
2013-05-04 17:12:00,74.0,39.0,-100.00,NW,322,4.0,11.0,28,0.00,,,0.16,,2013-05-04 22:12:00,
2013-05-04 17:22:00,74.0,39.0,-100.00,NW,322,4.0,11.0,28,0.00,,,0.16,,2013-05-04 22:22:00,
2013-05-04 17:33:00,74.0,39.0,-100.00,NW,322,4.0,11.0,28,0.00,,,0.16,,2013-05-04 22:33:00,
2013-05-04 17:42:00,74.0,39.0,-100.00,NW,322,4.0,11.0,28,0.00,,,0.16,,2013-05-04 22:42:00,
2013-05-04 18:12:00,73.0,37.0,-100.00,NW,325,3.0,13.0,27,0.00,,,-99.99,,2013-05-04 23:12:00,
2013-05-04 18:22:00,73.0,37.0,-100.00,NW,325,3.0,13.0,27,0.00,,,-99.99,,2013-05-04 23:22:00,
2013-05-04 18:32:00,73.0,37.0,-100.00,NW,325,3.0,13.0,27,0.00,,,-99.99,,2013-05-04 23:32:00,
2013-05-04 18:42:00,73.0,37.0,-100.00,NW,325,3.0,13.0,27,0.00,,,-99.99,,2013-05-04 23:42:00,
2013-05-04 19:11:00,72.0,41.0,-100.00,North,352,1.0,8.0,33,0.00,,,0.12,,2013-05-05 00:11:00,
2013-05-04 19:21:00,72.0,41.0,-100.00,North,352,1.0,8.0,33,0.00,,,0.12,,2013-05-05 00:21:00,
2013-05-04 19:32:00,72.0,41.0,-100.00,North,352,1.0,8.0,33,0.00,,,0.12,,2013-05-05 00:32:00,
2013-05-04 19:42:00,72.0,41.0,-100.00,North,352,1.0,8.0,33,0.00,,,0.12,,2013-05-05 00:42:00,
2013-05-04 20:11:00,57.0,47.0,-100.00,NNW,348,1.0,2.0,69,0.00,,,0.12,,2013-05-05 01:11:00,
2013-05-04 20:21:00,57.0,47.0,-100.00,NNW,348,1.0,2.0,69,0.00,,,0.12,,2013-05-05 01:21:00,
2013-05-04 20:32:00,57.0,47.0,-100.00,NNW,348,1.0,2.0,69,0.00,,,0.12,,2013-05-05 01:32:00,
2013-05-04 20:42:00,57.0,47.0,-100.00,NNW,348,1.0,2.0,69,0.00,,,0.12,,2013-05-05 01:42:00,
2013-05-04 21:11:00,51.0,48.0,-100.00,NNW,327,1.0,1.0,90,0.00,,,0.10,,2013-05-05 02:11:00,
2013-05-04 21:22:00,51.0,48.0,-100.00,NNW,327,1.0,1.0,90,0.00,,,0.10,,2013-05-05 02:22:00,
2013-05-04 21:32:00,51.0,48.0,-100.00,NNW,327,1.0,1.0,90,0.00,,,0.10,,2013-05-05 02:32:00,
2013-05-04 21:42:00,51.0,48.0,-100.00,NNW,327,1.0,1.0,90,0.00,,,0.10,,2013-05-05 02:42:00,
2013-05-04 22:11:00,49.0,48.0,-100.00,ESE,119,0.0,0.0,96,0.00,,,0.08,,2013-05-05 03:11:00,
2013-05-04 22:22:00,49.0,48.0,-100.00,ESE,119,0.0,0.0,96,0.00,,,0.08,,2013-05-05 03:22:00,
2013-05-04 22:33:00,49.0,48.0,-100.00,ESE,119,0.0,0.0,96,0.00,,,0.08,,2013-05-05 03:33:00,
2013-05-04 22:42:00,49.0,48.0,-100.00,ESE,119,0.0,0.0,96,0.00,,,0.08,,2013-05-05 03:42:00,
2013-05-04 23:12:00,48.0,47.0,-100.00,East,96,0.0,3.0,98,0.00,,,0.00,,2013-05-05 04:12:00,
2013-05-04 23:23:00,48.0,47.0,-100.00,East,96,0.0,3.0,98,0.00,,,0.00,,2013-05-05 04:23:00,
2013-05-04 23:32:00,48.0,47.0,-100.00,East,96,0.0,3.0,98,0.00,,,0.00,,2013-05-05 04:32:00,
2013-05-04 23:43:00,48.0,47.0,-100.00,East,96,0.0,3.0,98,0.00,,,0.00,,2013-05-05 04:43:00,